createdAt,value
2023-05-22T00:02:42.931Z,64.26
2023-05-22T00:05:45.884Z,64.61
2023-05-22T00:08:48.420Z,63.80
2023-05-22T00:11:51.534Z,63.74
2023-05-22T00:14:54.095Z,64.79
2023-05-22T00:17:56.782Z,64.38
2023-05-22T00:20:59.599Z,63.71
2023-05-22T00:24:02.701Z,64.34
2023-05-22T00:27:05.355Z,65.25
2023-05-22T00:30:08.405Z,65.48
2023-05-22T00:33:12.608Z,64.62
2023-05-22T00:36:15.582Z,65.77
2023-05-22T00:39:18.104Z,65.38
2023-05-22T00:42:22.653Z,65.11
2023-05-22T00:45:25.579Z,65.01
2023-05-22T00:48:28.284Z,65.76
2023-05-22T00:51:31.057Z,65.04
2023-05-22T00:54:33.849Z,65.32
2023-05-22T00:57:38.378Z,65.10
2023-05-22T01:00:42.755Z,65.58
2023-05-22T01:03:46.033Z,66.25
2023-05-22T01:06:49.513Z,66.01
2023-05-22T01:09:52.728Z,65.98
2023-05-22T01:13:15.561Z,66.85
2023-05-22T01:16:29.863Z,66.97
2023-05-22T01:19:47.686Z,66.87
2023-05-22T01:23:25.361Z,67.67
2023-05-22T01:26:54.999Z,67.71
2023-05-22T01:30:12.898Z,68.06
2023-05-22T01:33:18.633Z,68.46
2023-05-22T01:36:24.085Z,68.96
2023-05-22T01:39:28.688Z,69.83
2023-05-22T01:42:31.181Z,70.53
2023-05-22T01:45:34.052Z,70.92
2023-05-22T01:48:38.032Z,71.15
2023-05-22T01:51:53.834Z,72.12
2023-05-22T01:55:03.678Z,74.42
2023-05-22T01:58:31.828Z,74.54
2023-05-22T02:01:38.272Z,75.15
2023-05-22T02:04:44.718Z,75.31
2023-05-22T02:07:48.406Z,75.43
2023-05-22T02:10:55.938Z,75.65
2023-05-22T02:13:58.646Z,75.88
2023-05-22T02:17:02.237Z,76.11
2023-05-22T02:20:05.555Z,76.49
2023-05-22T02:23:15.328Z,76.48
2023-05-22T02:26:17.854Z,76.61
2023-05-22T02:29:20.386Z,77.06
2023-05-22T02:32:22.910Z,77.13
2023-05-22T02:35:25.500Z,77.56
2023-05-22T02:38:28.228Z,77.41
2023-05-22T02:41:31.030Z,77.34
2023-05-22T02:44:33.486Z,77.36
2023-05-22T02:47:36.097Z,77.58
2023-05-22T02:50:38.808Z,77.54
2023-05-22T02:53:41.820Z,76.88
2023-05-22T02:56:44.375Z,76.84
2023-05-22T02:59:46.955Z,76.33
2023-05-22T03:02:49.931Z,76.67
2023-05-22T03:05:58.483Z,76.70
2023-05-22T03:09:01.227Z,76.57
2023-05-22T03:12:05.103Z,76.50
2023-05-22T03:15:08.174Z,76.64
2023-05-22T03:18:11.771Z,76.73
2023-05-22T03:21:15.172Z,76.18
2023-05-22T03:24:17.691Z,75.85
2023-05-22T03:27:20.394Z,75.57
2023-05-22T03:30:24.559Z,75.74
2023-05-22T03:33:40.310Z,76.16
2023-05-22T03:36:43.073Z,76.12
2023-05-22T03:39:45.984Z,76.49
2023-05-22T03:43:00.555Z,76.39
2023-05-22T03:46:03.521Z,76.39
2023-05-22T03:49:06.380Z,75.92
2023-05-22T03:52:11.872Z,75.00
2023-05-22T03:55:14.809Z,73.63
2023-05-22T03:58:17.297Z,73.30
2023-05-22T04:01:20.414Z,73.57
2023-05-22T04:04:22.890Z,73.47
2023-05-22T04:07:26.743Z,73.47
2023-05-22T04:10:29.263Z,72.38
2023-05-22T04:13:31.837Z,72.08
2023-05-22T04:16:36.288Z,71.16
2023-05-22T04:19:38.749Z,70.97
2023-05-22T04:22:41.481Z,70.19
2023-05-22T04:25:47.920Z,69.65
2023-05-22T04:28:50.513Z,68.55
2023-05-22T04:31:54.541Z,67.99
2023-05-22T04:34:58.470Z,68.05
2023-05-22T04:38:06.428Z,67.43
2023-05-22T04:41:08.890Z,66.77
2023-05-22T04:44:12.228Z,66.34
2023-05-22T04:47:14.940Z,65.74
2023-05-22T04:50:17.383Z,65.31
2023-05-22T04:53:20.045Z,65.14
2023-05-22T04:56:35.366Z,65.64
2023-05-22T04:59:40.301Z,65.57
2023-05-22T05:02:43.219Z,64.29
2023-05-22T05:05:47.791Z,65.01
2023-05-22T05:08:50.396Z,64.82
2023-05-22T05:11:53.469Z,63.67
2023-05-22T05:14:56.100Z,63.97
2023-05-22T05:17:58.626Z,65.80
2023-05-22T05:21:01.139Z,64.08
2023-05-22T05:24:03.808Z,64.02
2023-05-22T05:27:06.588Z,64.86
2023-05-22T05:30:09.689Z,64.20
2023-05-22T05:33:22.215Z,63.48
2023-05-22T05:36:47.596Z,62.90
2023-05-22T05:39:51.807Z,62.31
2023-05-22T05:42:56.977Z,62.08
2023-05-22T05:46:02.362Z,61.22
2023-05-22T05:49:12.623Z,57.95
2023-05-22T05:52:16.562Z,56.88
2023-05-22T05:55:19.253Z,58.41
2023-05-22T05:58:23.071Z,58.18
2023-05-22T06:01:46.127Z,58.55
2023-05-22T06:04:56.103Z,57.77
2023-05-22T06:07:59.035Z,56.31
2023-05-22T06:11:02.517Z,55.71
2023-05-22T06:14:12.139Z,55.41
2023-05-22T06:17:14.913Z,54.52
2023-05-22T06:20:19.214Z,53.98
2023-05-22T06:23:21.764Z,54.33
2023-05-22T06:26:25.881Z,54.05
2023-05-22T06:29:28.693Z,53.24
2023-05-22T06:32:32.470Z,52.77
2023-05-22T06:35:35.073Z,51.39
2023-05-22T06:38:39.372Z,51.01
2023-05-22T06:41:49.173Z,50.39
2023-05-22T06:44:53.004Z,49.71
2023-05-22T06:47:56.894Z,48.54
2023-05-22T06:51:00.417Z,48.90
2023-05-22T06:54:07.119Z,47.28
2023-05-22T06:57:11.943Z,46.90
2023-05-22T07:00:15.473Z,47.54
2023-05-22T07:03:30.636Z,46.85
2023-05-22T07:06:52.465Z,47.90
2023-05-22T07:09:55.186Z,45.69
2023-05-22T07:12:59.691Z,45.44
2023-05-22T07:16:04.234Z,44.70
2023-05-22T07:19:09.273Z,39.00
2023-05-22T07:22:12.128Z,37.56
2023-05-22T07:25:15.577Z,37.33
2023-05-22T07:28:18.434Z,37.72
2023-05-22T07:31:39.032Z,39.04
2023-05-22T07:34:42.350Z,39.94
2023-05-22T07:37:45.100Z,40.04
2023-05-22T07:40:47.713Z,40.29
2023-05-22T07:43:51.059Z,41.17
2023-05-22T07:46:58.382Z,40.57
2023-05-22T07:50:04.674Z,39.34
2023-05-22T07:53:09.851Z,39.72
2023-05-22T07:56:14.819Z,38.10
2023-05-22T07:59:19.727Z,36.94
2023-05-22T08:02:22.801Z,37.21
2023-05-22T08:05:25.339Z,36.96
2023-05-22T08:08:28.883Z,35.15
2023-05-22T08:11:34.045Z,35.77
2023-05-22T08:14:36.624Z,36.68
2023-05-22T08:17:39.918Z,35.22
2023-05-22T08:20:42.590Z,34.33
2023-05-22T08:23:46.244Z,35.70
2023-05-22T08:26:48.690Z,35.84
2023-05-22T08:29:52.212Z,33.95
2023-05-22T08:32:54.761Z,34.19
2023-05-22T08:35:57.210Z,34.28
2023-05-22T08:39:01.332Z,34.38
2023-05-22T08:42:05.121Z,34.21
2023-05-22T08:45:08.137Z,32.90
2023-05-22T08:48:13.856Z,33.33
2023-05-22T08:51:21.045Z,33.26
2023-05-22T08:54:27.633Z,33.22
2023-05-22T08:57:31.416Z,33.64
2023-05-22T09:00:34.429Z,32.64
2023-05-22T09:03:37.735Z,32.58
2023-05-22T09:06:40.791Z,31.37
2023-05-22T09:09:43.845Z,32.45
2023-05-22T09:13:09.444Z,32.76
2023-05-22T09:16:13.541Z,31.51
2023-05-22T09:19:16.573Z,32.29
2023-05-22T09:22:20.146Z,33.44
2023-05-22T09:25:23.873Z,33.81
2023-05-22T09:28:27.449Z,32.43
2023-05-22T09:31:30.526Z,33.04
2023-05-22T09:34:34.363Z,32.82
2023-05-22T09:37:37.847Z,33.24
2023-05-22T09:40:42.236Z,33.04
2023-05-22T09:43:50.957Z,32.63
2023-05-22T09:46:54.926Z,33.17
2023-05-22T09:50:01.365Z,33.92
2023-05-22T09:53:05.214Z,34.72
2023-05-22T09:56:14.719Z,34.93
2023-05-22T09:59:22.517Z,36.43
2023-05-22T10:02:26.998Z,35.75
2023-05-22T10:05:34.051Z,35.14
2023-05-22T10:08:44.461Z,36.24
2023-05-22T10:11:50.653Z,35.73
2023-05-22T10:14:55.500Z,35.64
2023-05-22T10:17:59.980Z,36.18
2023-05-22T10:21:03.892Z,35.43
2023-05-22T10:24:08.046Z,36.13
2023-05-22T10:27:11.334Z,35.15
2023-05-22T10:30:44.960Z,35.59
2023-05-22T10:34:13.299Z,33.76
2023-05-22T10:37:41.333Z,34.21
2023-05-22T10:40:46.173Z,32.07
2023-05-22T10:43:51.115Z,30.51
2023-05-22T10:46:53.986Z,29.17
2023-05-22T10:50:05.299Z,26.65
2023-05-22T10:53:32.303Z,26.63
2023-05-22T10:56:36.345Z,24.93
2023-05-22T10:59:38.938Z,23.90
2023-05-22T11:02:46.117Z,22.90
2023-05-22T11:05:56.792Z,22.21
2023-05-22T11:08:59.298Z,22.32
2023-05-22T11:12:28.592Z,22.92
2023-05-22T11:15:35.127Z,20.48
2023-05-22T11:18:39.130Z,20.79
2023-05-22T11:21:47.018Z,20.32
2023-05-22T11:24:49.701Z,19.04
2023-05-22T11:27:54.622Z,18.78
2023-05-22T11:30:57.683Z,18.46
2023-05-22T11:34:02.130Z,17.55
2023-05-22T11:37:04.833Z,18.82
2023-05-22T11:40:08.785Z,16.97
2023-05-22T11:43:12.033Z,17.47
2023-05-22T11:46:15.356Z,17.76
2023-05-22T11:49:18.266Z,17.62
2023-05-22T11:52:21.193Z,18.49
2023-05-22T11:55:24.398Z,17.99
2023-05-22T11:58:30.354Z,17.56
2023-05-22T12:01:33.913Z,16.96
2023-05-22T12:04:38.229Z,15.53
2023-05-22T12:07:41.251Z,16.46
2023-05-22T12:10:51.052Z,15.42
2023-05-22T12:14:06.628Z,15.16
2023-05-22T12:17:12.903Z,16.63
2023-05-22T12:20:16.575Z,18.22
2023-05-22T12:23:25.356Z,16.80
2023-05-22T12:26:27.886Z,15.88
2023-05-22T12:29:30.335Z,14.75
2023-05-22T12:32:33.063Z,14.01
2023-05-22T12:35:38.651Z,13.01
2023-05-22T12:38:41.196Z,12.87
2023-05-22T12:41:44.535Z,14.41
2023-05-22T12:44:47.170Z,14.50
2023-05-22T12:47:49.657Z,15.36
2023-05-22T12:50:53.397Z,16.13
2023-05-22T12:53:56.998Z,16.52
2023-05-22T12:56:59.712Z,16.08
2023-05-22T13:00:02.374Z,15.33
2023-05-22T13:03:06.562Z,16.64
2023-05-22T13:06:09.330Z,15.33
2023-05-22T13:09:16.732Z,15.05
2023-05-22T13:12:19.506Z,16.20
2023-05-22T13:15:22.180Z,16.81
2023-05-22T13:18:25.398Z,14.85
2023-05-22T13:21:28.464Z,13.25
2023-05-22T13:24:30.955Z,12.56
2023-05-22T13:27:34.114Z,12.28
2023-05-22T13:30:36.698Z,14.19
2023-05-22T13:33:39.677Z,15.50
2023-05-22T13:36:42.306Z,13.72
2023-05-22T13:39:44.852Z,13.68
2023-05-22T13:42:47.542Z,12.96
2023-05-22T13:45:50.516Z,13.95
2023-05-22T13:48:53.613Z,15.70
2023-05-22T13:51:56.320Z,18.68
2023-05-22T13:55:00.243Z,15.16
2023-05-22T13:58:02.784Z,15.02
2023-05-22T14:01:05.445Z,13.02
2023-05-22T14:04:08.200Z,14.92
2023-05-22T14:07:10.759Z,13.36
2023-05-22T14:10:13.340Z,13.02
2023-05-22T14:13:15.984Z,12.84
2023-05-22T14:16:18.638Z,12.58
2023-05-22T14:19:21.434Z,14.12
2023-05-22T14:22:24.006Z,14.16
2023-05-22T14:25:26.527Z,14.39
2023-05-22T14:28:29.200Z,14.24
2023-05-22T14:31:31.775Z,15.24
2023-05-22T14:34:34.640Z,15.20
2023-05-22T14:37:37.183Z,14.50
2023-05-22T14:40:39.701Z,14.25
2023-05-22T14:43:42.486Z,14.34
2023-05-22T14:46:45.538Z,14.36
2023-05-22T14:49:48.091Z,14.68
2023-05-22T14:52:50.774Z,14.34
2023-05-22T14:55:53.871Z,14.37
2023-05-22T14:58:56.385Z,14.37
2023-05-22T15:01:59.006Z,14.89
2023-05-22T15:05:01.617Z,14.77
2023-05-22T15:08:04.078Z,15.64
2023-05-22T15:11:06.652Z,15.32
2023-05-22T15:14:09.128Z,14.79
2023-05-22T15:17:11.700Z,15.16
2023-05-22T15:20:14.183Z,15.37
2023-05-22T15:23:16.907Z,17.35
2023-05-22T15:26:19.479Z,19.15
2023-05-22T15:29:22.057Z,18.62
2023-05-22T15:32:24.550Z,17.55
2023-05-22T15:35:30.936Z,16.88
2023-05-22T15:38:33.836Z,18.82
2023-05-22T15:41:36.411Z,22.17
2023-05-22T15:44:38.996Z,20.85
2023-05-22T15:47:42.703Z,21.33
2023-05-22T15:50:45.314Z,20.05
2023-05-22T15:53:47.885Z,18.81
2023-05-22T15:56:50.575Z,21.52
2023-05-22T15:59:53.000Z,21.38
2023-05-22T16:02:55.576Z,23.25
2023-05-22T16:05:58.215Z,24.43
2023-05-22T16:09:01.115Z,25.28
2023-05-22T16:12:04.680Z,27.39
2023-05-22T16:15:07.939Z,25.12
2023-05-22T16:18:11.660Z,23.49
2023-05-22T16:21:14.117Z,22.93
2023-05-22T16:24:16.699Z,23.08
2023-05-22T16:27:19.383Z,24.19
2023-05-22T16:30:21.850Z,25.88
2023-05-22T16:33:24.430Z,26.16
2023-05-22T16:36:27.326Z,27.26
2023-05-22T16:39:30.269Z,27.37
2023-05-22T16:42:32.825Z,28.35
2023-05-22T16:45:35.613Z,29.04
2023-05-22T16:48:38.144Z,30.96
2023-05-22T16:51:40.599Z,32.08
2023-05-22T16:54:43.029Z,33.47
2023-05-22T16:57:46.353Z,35.67
2023-05-22T17:00:50.498Z,37.99
2023-05-22T17:03:54.758Z,39.59
2023-05-22T17:06:57.327Z,39.17
2023-05-22T17:10:01.003Z,42.18
2023-05-22T17:13:03.499Z,44.30
2023-05-22T17:16:06.128Z,41.52
2023-05-22T17:19:09.254Z,40.72
2023-05-22T17:22:11.905Z,41.13
2023-05-22T17:25:14.518Z,41.16
2023-05-22T17:28:17.493Z,41.65
2023-05-22T17:31:20.045Z,40.36
2023-05-22T17:34:24.508Z,40.88
2023-05-22T17:37:27.110Z,40.16
2023-05-22T17:40:40.424Z,41.84
2023-05-22T17:43:47.092Z,46.76
2023-05-22T17:46:49.682Z,47.96
2023-05-22T17:49:52.222Z,47.93
2023-05-22T17:52:54.764Z,48.09
2023-05-22T17:55:57.524Z,47.32
2023-05-22T17:59:00.023Z,46.90
2023-05-22T18:02:02.546Z,44.79
2023-05-22T18:05:06.248Z,44.64
2023-05-22T18:08:08.794Z,44.84
2023-05-22T18:11:11.464Z,44.96
2023-05-22T18:14:13.868Z,45.70
2023-05-22T18:17:16.453Z,46.17
2023-05-22T18:20:20.126Z,46.97
2023-05-22T18:23:22.646Z,46.57
2023-05-22T18:26:25.103Z,47.85
2023-05-22T18:29:27.509Z,47.74
2023-05-22T18:32:30.251Z,48.41
2023-05-22T18:35:32.874Z,47.64
2023-05-22T18:38:35.342Z,48.33
2023-05-22T18:41:37.822Z,49.28
2023-05-22T18:44:40.894Z,50.37
2023-05-22T18:47:43.434Z,51.42
2023-05-22T18:50:45.948Z,51.72
2023-05-22T18:53:48.549Z,53.00
2023-05-22T18:56:51.394Z,53.21
2023-05-22T18:59:53.950Z,54.12
2023-05-22T19:02:56.485Z,54.79
2023-05-22T19:05:58.977Z,54.36
2023-05-22T19:09:01.474Z,55.22
2023-05-22T19:12:04.121Z,54.45
2023-05-22T19:15:07.391Z,55.47
2023-05-22T19:18:10.228Z,58.13
2023-05-22T19:21:12.922Z,59.78
2023-05-22T19:24:15.528Z,60.38
2023-05-22T19:27:18.785Z,60.31
2023-05-22T19:30:22.235Z,60.84
2023-05-22T19:33:26.296Z,61.16
2023-05-22T19:36:28.954Z,60.97
2023-05-22T19:39:31.449Z,60.77
2023-05-22T19:42:34.734Z,61.46
2023-05-22T19:45:37.611Z,61.85
2023-05-22T19:48:40.101Z,61.33
2023-05-22T19:51:43.447Z,61.82
2023-05-22T19:54:46.301Z,61.82
2023-05-22T19:57:48.821Z,63.26
2023-05-22T20:00:51.352Z,62.75
2023-05-22T20:03:56.152Z,62.73
2023-05-22T20:06:58.921Z,63.37
2023-05-22T20:10:01.425Z,62.88
2023-05-22T20:13:05.272Z,64.49
2023-05-22T20:16:11.914Z,64.73
2023-05-22T20:19:14.893Z,64.81
2023-05-22T20:22:17.481Z,64.60
2023-05-22T20:25:21.360Z,64.92
2023-05-22T20:28:23.991Z,64.59
2023-05-22T20:31:26.570Z,64.61
2023-05-22T20:34:29.146Z,65.22
2023-05-22T20:37:34.834Z,65.49
2023-05-22T20:40:37.832Z,65.39
2023-05-22T20:43:44.248Z,65.75
2023-05-22T20:46:46.782Z,66.17
2023-05-22T20:49:49.263Z,66.39
2023-05-22T20:52:51.775Z,66.00
2023-05-22T20:55:54.317Z,66.48
2023-05-22T20:58:56.958Z,67.38
2023-05-22T21:01:59.481Z,67.28
2023-05-22T21:05:01.955Z,66.90
2023-05-22T21:08:04.406Z,66.93
2023-05-22T21:11:07.538Z,66.77
2023-05-22T21:14:10.122Z,67.09
2023-05-22T21:17:12.810Z,66.72
2023-05-22T21:20:15.670Z,66.93
2023-05-22T21:23:18.153Z,67.69
2023-05-22T21:26:23.055Z,68.19
2023-05-22T21:29:26.274Z,67.80
2023-05-22T21:32:28.852Z,68.62
2023-05-22T21:35:31.415Z,68.98
2023-05-22T21:38:33.913Z,69.24
2023-05-22T21:41:36.573Z,69.12
2023-05-22T21:44:39.209Z,69.46
2023-05-22T21:47:41.735Z,69.72
2023-05-22T21:50:44.326Z,70.01
2023-05-22T21:53:47.475Z,70.68
2023-05-22T21:56:49.905Z,71.14
2023-05-22T21:59:52.391Z,71.60
2023-05-22T22:02:57.284Z,71.94
2023-05-22T22:05:59.874Z,71.80
2023-05-22T22:09:03.651Z,71.90
2023-05-22T22:12:08.202Z,71.63
2023-05-22T22:15:12.468Z,71.55
2023-05-22T22:18:15.917Z,72.13
2023-05-22T22:21:18.474Z,72.38
2023-05-22T22:24:21.647Z,72.76
2023-05-22T22:27:24.740Z,72.36
2023-05-22T22:30:27.315Z,71.63
2023-05-22T22:33:30.498Z,71.82
2023-05-22T22:36:33.462Z,72.37
2023-05-22T22:39:35.837Z,72.52
2023-05-22T22:42:38.216Z,72.58
2023-05-22T22:45:41.014Z,72.69
2023-05-22T22:48:43.783Z,72.38
2023-05-22T22:51:46.198Z,71.95
2023-05-22T22:54:49.097Z,71.83
2023-05-22T22:57:52.000Z,71.86
2023-05-22T23:00:54.570Z,71.61
2023-05-22T23:03:57.074Z,71.87
2023-05-22T23:06:59.659Z,72.84
2023-05-22T23:10:02.139Z,74.65
2023-05-22T23:13:04.841Z,74.87
2023-05-22T23:16:07.394Z,75.66
2023-05-22T23:19:11.028Z,75.53
2023-05-22T23:22:13.608Z,75.99
2023-05-22T23:25:16.252Z,77.38
2023-05-22T23:28:18.957Z,78.80
2023-05-22T23:31:25.936Z,79.22
2023-05-22T23:34:28.571Z,78.57
2023-05-22T23:37:31.077Z,78.83
2023-05-22T23:40:33.550Z,79.12
2023-05-22T23:43:36.146Z,79.05
2023-05-22T23:46:39.801Z,79.00
2023-05-22T23:49:42.654Z,79.34
2023-05-22T23:52:47.339Z,79.39
2023-05-22T23:55:50.338Z,79.76
2023-05-22T23:58:52.790Z,80.37
